createdAt,value
2023-11-17T00:00:14.510Z,74.37
2023-11-17T00:02:43.379Z,74.90
2023-11-17T00:05:12.089Z,74.58
2023-11-17T00:07:40.493Z,74.99
2023-11-17T00:10:09.180Z,74.58
2023-11-17T00:12:37.184Z,74.58
2023-11-17T00:15:07.874Z,74.00
2023-11-17T00:17:37.202Z,73.96
2023-11-17T00:20:07.109Z,73.55
2023-11-17T00:22:35.020Z,73.09
2023-11-17T00:25:03.343Z,73.25
2023-11-17T00:27:31.323Z,73.52
2023-11-17T00:29:59.226Z,73.28
2023-11-17T00:32:27.566Z,73.00
2023-11-17T00:34:57.072Z,73.01
2023-11-17T00:37:26.362Z,72.69
2023-11-17T00:39:54.497Z,72.85
2023-11-17T00:42:22.636Z,73.06
2023-11-17T00:44:50.562Z,73.35
2023-11-17T00:47:19.050Z,72.95
2023-11-17T00:49:47.051Z,71.70
2023-11-17T00:52:16.415Z,72.29
2023-11-17T00:54:45.025Z,71.77
2023-11-17T00:57:13.477Z,71.92
2023-11-17T00:59:41.546Z,72.01
2023-11-17T01:02:09.747Z,72.52
2023-11-17T01:04:37.765Z,72.51
2023-11-17T01:07:05.903Z,72.06
2023-11-17T01:09:35.759Z,70.99
2023-11-17T01:12:03.681Z,71.04
2023-11-17T01:14:32.931Z,70.46
2023-11-17T01:17:01.060Z,71.32
2023-11-17T01:19:29.102Z,70.52
2023-11-17T01:21:57.023Z,71.06
2023-11-17T01:24:25.032Z,70.37
2023-11-17T01:26:54.326Z,69.04
2023-11-17T01:29:22.254Z,69.97
2023-11-17T01:31:50.607Z,68.31
2023-11-17T01:34:18.749Z,68.56
2023-11-17T01:36:47.589Z,68.26
2023-11-17T01:39:15.697Z,68.04
2023-11-17T01:41:43.918Z,67.90
2023-11-17T01:44:13.227Z,67.71
2023-11-17T01:46:41.974Z,68.13
2023-11-17T01:49:13.747Z,68.62
2023-11-17T01:51:41.986Z,68.42
2023-11-17T01:54:13.350Z,68.54
2023-11-17T01:56:43.757Z,69.03
2023-11-17T01:59:13.046Z,68.50
2023-11-17T02:01:41.117Z,68.31
2023-11-17T02:04:10.222Z,68.55
2023-11-17T02:06:54.338Z,68.57
2023-11-17T02:09:36.039Z,68.02
2023-11-17T02:12:16.028Z,68.61
2023-11-17T02:14:49.604Z,69.15
2023-11-17T02:17:26.736Z,68.63
2023-11-17T02:20:00.668Z,68.62
2023-11-17T02:22:31.915Z,68.46
2023-11-17T02:25:14.464Z,69.21
2023-11-17T02:27:59.228Z,69.73
2023-11-17T02:30:31.082Z,68.77
2023-11-17T02:33:01.004Z,68.26
2023-11-17T02:35:31.610Z,68.53
2023-11-17T02:38:02.532Z,68.29
2023-11-17T02:40:33.231Z,68.81
2023-11-17T02:43:01.401Z,69.31
2023-11-17T02:45:37.508Z,68.57
2023-11-17T02:48:15.575Z,68.55
2023-11-17T02:51:04.975Z,68.42
2023-11-17T02:53:36.877Z,68.16
2023-11-17T02:56:05.882Z,69.07
2023-11-17T02:58:35.780Z,68.83
2023-11-17T03:01:06.462Z,68.67
2023-11-17T03:03:37.372Z,68.74
2023-11-17T03:06:07.097Z,68.72
2023-11-17T03:08:36.761Z,68.69
2023-11-17T03:11:05.535Z,68.27
2023-11-17T03:13:34.126Z,68.07
2023-11-17T03:16:02.538Z,68.23
2023-11-17T03:18:39.840Z,68.18
2023-11-17T03:21:10.950Z,68.38
2023-11-17T03:23:40.593Z,68.73
2023-11-17T03:26:08.519Z,68.29
2023-11-17T03:28:36.988Z,68.28
2023-11-17T03:31:05.842Z,68.29
2023-11-17T03:33:35.160Z,68.41
2023-11-17T03:36:04.121Z,68.83
2023-11-17T03:38:32.431Z,68.20
2023-11-17T03:41:01.176Z,68.69
2023-11-17T03:45:57.423Z,68.92
2023-11-17T03:48:25.513Z,69.02
2023-11-17T03:50:55.511Z,69.35
2023-11-17T03:53:23.599Z,69.24
2023-11-17T03:55:53.662Z,69.44
2023-11-17T03:58:22.975Z,69.50
2023-11-17T04:00:50.989Z,68.84
2023-11-17T04:03:20.931Z,69.47
2023-11-17T04:05:50.197Z,69.63
2023-11-17T04:08:19.444Z,69.35
2023-11-17T04:10:47.886Z,68.90
2023-11-17T04:13:16.788Z,69.40
2023-11-17T04:15:45.443Z,69.05
2023-11-17T04:18:14.291Z,69.03
2023-11-17T04:20:42.543Z,68.99
2023-11-17T04:23:10.495Z,68.83
2023-11-17T04:25:39.706Z,68.86
2023-11-17T04:28:07.600Z,68.89
2023-11-17T04:30:35.640Z,68.95
2023-11-17T04:33:03.700Z,68.33
2023-11-17T04:35:31.688Z,68.81
2023-11-17T04:37:59.598Z,68.33
2023-11-17T04:40:28.387Z,68.03
2023-11-17T04:42:57.748Z,68.38
2023-11-17T04:45:26.613Z,67.97
2023-11-17T04:47:54.711Z,68.39
2023-11-17T04:50:22.647Z,68.31
2023-11-17T04:52:50.627Z,68.74
2023-11-17T04:55:21.391Z,69.10
2023-11-17T04:57:49.379Z,68.67
2023-11-17T05:00:21.423Z,73.28
2023-11-17T05:02:49.358Z,69.78
2023-11-17T05:05:17.520Z,74.59
2023-11-17T05:07:45.654Z,67.18
2023-11-17T05:10:15.328Z,67.43
2023-11-17T05:12:43.526Z,67.35
2023-11-17T05:15:14.494Z,67.74
2023-11-17T05:17:49.750Z,66.43
2023-11-17T05:20:19.976Z,66.57
2023-11-17T05:22:49.905Z,70.27
2023-11-17T05:25:18.540Z,66.57
2023-11-17T05:27:48.065Z,66.62
2023-11-17T05:30:20.038Z,67.12
2023-11-17T05:32:49.972Z,67.17
2023-11-17T05:35:18.189Z,66.60
2023-11-17T05:37:46.127Z,67.24
2023-11-17T05:40:14.407Z,67.85
2023-11-17T05:42:43.008Z,68.07
2023-11-17T05:45:13.558Z,67.74
2023-11-17T05:47:42.338Z,68.18
2023-11-17T05:50:12.984Z,68.68
2023-11-17T05:52:42.616Z,66.23
2023-11-17T05:55:12.570Z,66.20
2023-11-17T05:57:43.852Z,66.77
2023-11-17T06:00:14.922Z,66.76
2023-11-17T06:02:43.902Z,66.94
2023-11-17T06:05:14.757Z,67.46
2023-11-17T06:07:44.148Z,67.87
2023-11-17T06:10:13.282Z,67.66
2023-11-17T06:12:43.352Z,67.98
2023-11-17T06:15:12.570Z,68.25
2023-11-17T06:17:40.818Z,68.60
2023-11-17T06:20:10.310Z,68.42
2023-11-17T06:22:39.589Z,68.64
2023-11-17T06:25:09.606Z,68.65
2023-11-17T06:27:38.641Z,68.64
2023-11-17T06:30:07.910Z,68.70
2023-11-17T06:32:36.003Z,69.08
2023-11-17T06:35:07.050Z,68.92
2023-11-17T06:37:35.208Z,69.27
2023-11-17T06:40:10.844Z,69.42
2023-11-17T06:42:42.477Z,69.53
2023-11-17T06:45:15.302Z,69.34
2023-11-17T06:47:44.372Z,69.62
2023-11-17T06:50:13.929Z,69.55
2023-11-17T06:52:42.923Z,69.16
2023-11-17T06:55:13.617Z,69.75
2023-11-17T06:57:44.547Z,69.28
2023-11-17T07:00:14.466Z,68.93
2023-11-17T07:02:45.743Z,69.10
2023-11-17T07:05:18.380Z,69.20
2023-11-17T07:07:48.297Z,70.43
2023-11-17T07:10:17.872Z,70.01
2023-11-17T07:12:46.091Z,69.06
2023-11-17T07:15:14.746Z,68.90
2023-11-17T07:17:43.976Z,68.94
2023-11-17T07:20:13.632Z,68.39
2023-11-17T07:22:42.315Z,68.05
2023-11-17T07:25:12.433Z,69.38
2023-11-17T07:27:42.337Z,67.88
2023-11-17T07:30:13.718Z,67.75
2023-11-17T07:32:45.090Z,67.94
2023-11-17T07:35:13.402Z,67.67
2023-11-17T07:37:41.441Z,67.18
2023-11-17T07:40:11.431Z,67.06
2023-11-17T07:42:40.695Z,67.12
2023-11-17T07:45:12.624Z,66.98
2023-11-17T07:47:42.597Z,66.82
2023-11-17T07:50:15.213Z,66.94
2023-11-17T07:52:45.347Z,66.91
2023-11-17T07:55:15.168Z,66.44
2023-11-17T07:57:43.563Z,66.86
2023-11-17T08:00:19.474Z,67.48
2023-11-17T08:02:48.290Z,67.56
2023-11-17T08:05:16.543Z,67.23
2023-11-17T08:07:47.203Z,66.84
2023-11-17T08:10:15.487Z,66.36
2023-11-17T08:12:47.843Z,68.24
2023-11-17T08:15:19.073Z,67.27
2023-11-17T08:17:48.692Z,66.13
2023-11-17T08:20:19.702Z,66.21
2023-11-17T08:22:48.442Z,65.60
2023-11-17T08:25:18.045Z,65.87
2023-11-17T08:27:46.064Z,65.94
2023-11-17T08:30:14.746Z,66.41
2023-11-17T08:32:45.128Z,65.83
2023-11-17T08:35:17.563Z,65.64
2023-11-17T08:37:46.528Z,65.65
2023-11-17T08:40:19.404Z,65.99
2023-11-17T08:42:50.787Z,65.58
2023-11-17T08:45:19.801Z,65.55
2023-11-17T08:47:54.820Z,65.62
2023-11-17T08:50:23.246Z,64.40
2023-11-17T08:52:51.185Z,65.48
2023-11-17T08:55:19.251Z,64.95
2023-11-17T08:57:47.899Z,64.63
2023-11-17T09:00:19.873Z,64.96
2023-11-17T09:02:50.288Z,64.62
2023-11-17T09:05:21.133Z,65.19
2023-11-17T09:07:51.225Z,65.64
2023-11-17T09:10:21.230Z,65.83
2023-11-17T09:12:50.897Z,65.73
2023-11-17T09:15:20.434Z,66.61
2023-11-17T09:17:52.839Z,67.35
2023-11-17T09:20:25.152Z,66.99
2023-11-17T09:22:54.301Z,66.82
2023-11-17T09:25:24.457Z,66.56
2023-11-17T09:27:55.366Z,66.16
2023-11-17T09:30:23.741Z,66.69
2023-11-17T09:32:56.134Z,66.73
2023-11-17T09:35:28.638Z,66.80
2023-11-17T09:38:05.431Z,66.67
2023-11-17T09:40:35.711Z,67.46
2023-11-17T09:43:16.051Z,66.58
2023-11-17T09:45:46.515Z,66.48
2023-11-17T09:48:19.631Z,66.30
2023-11-17T09:50:52.726Z,66.53
2023-11-17T09:53:24.670Z,67.13
2023-11-17T09:55:59.636Z,67.63
2023-11-17T09:58:30.365Z,67.27
2023-11-17T10:00:58.892Z,66.73
2023-11-17T10:03:30.561Z,67.07
2023-11-17T10:06:05.750Z,67.33
2023-11-17T10:08:35.384Z,67.69
2023-11-17T10:11:04.615Z,67.38
2023-11-17T10:13:35.057Z,67.14
2023-11-17T10:16:04.498Z,67.11
2023-11-17T10:18:34.527Z,67.79
2023-11-17T10:21:05.539Z,67.63
2023-11-17T10:23:34.409Z,67.20
2023-11-17T10:26:02.564Z,67.09
2023-11-17T10:28:30.477Z,67.72
2023-11-17T10:31:02.709Z,67.55
2023-11-17T10:33:35.693Z,68.01
2023-11-17T10:36:11.831Z,69.27
2023-11-17T10:38:43.087Z,70.76
2023-11-17T10:41:18.579Z,70.22
2023-11-17T10:43:51.641Z,68.02
2023-11-17T10:46:25.543Z,66.93
2023-11-17T10:48:53.901Z,65.98
2023-11-17T10:51:23.464Z,65.79
2023-11-17T10:54:05.573Z,64.21
2023-11-17T10:56:35.307Z,63.58
2023-11-17T10:59:04.730Z,63.86
2023-11-17T11:01:37.030Z,64.21
2023-11-17T11:04:10.547Z,65.40
2023-11-17T11:06:42.923Z,64.46
2023-11-17T11:09:17.666Z,64.23
2023-11-17T11:11:49.471Z,65.04
2023-11-17T11:14:18.807Z,65.05
2023-11-17T11:16:49.613Z,65.57
2023-11-17T11:19:24.630Z,64.99
2023-11-17T11:22:02.481Z,65.46
2023-11-17T11:24:37.742Z,65.64
2023-11-17T11:27:08.218Z,65.60
2023-11-17T11:29:40.194Z,65.60
2023-11-17T11:32:09.810Z,65.98
2023-11-17T11:34:40.042Z,65.90
2023-11-17T11:37:11.792Z,67.98
2023-11-17T11:39:39.976Z,66.74
2023-11-17T11:42:08.894Z,66.05
2023-11-17T11:44:37.869Z,65.90
2023-11-17T11:47:06.524Z,64.08
2023-11-17T11:49:36.604Z,63.76
2023-11-17T11:52:15.477Z,62.99
2023-11-17T11:54:46.567Z,65.93
2023-11-17T11:57:31.379Z,63.41
2023-11-17T12:00:07.526Z,62.24
2023-11-17T12:02:53.760Z,60.93
2023-11-17T12:05:29.967Z,60.58
2023-11-17T12:07:59.550Z,60.84
2023-11-17T12:10:37.204Z,60.47
2023-11-17T12:13:08.533Z,60.40
2023-11-17T12:15:36.887Z,60.08
2023-11-17T12:18:07.700Z,60.38
2023-11-17T12:20:41.115Z,61.74
2023-11-17T12:23:12.305Z,61.88
2023-11-17T12:25:41.413Z,61.93
2023-11-17T12:28:12.713Z,61.62
2023-11-17T12:30:41.382Z,62.95
2023-11-17T12:33:11.236Z,63.15
2023-11-17T12:35:42.480Z,63.63
2023-11-17T12:38:17.472Z,63.41
2023-11-17T12:40:45.567Z,64.79
2023-11-17T12:43:14.123Z,65.11
2023-11-17T12:45:43.154Z,65.01
2023-11-17T12:48:15.542Z,65.88
2023-11-17T12:50:43.488Z,64.94
2023-11-17T12:53:11.651Z,65.92
2023-11-17T12:55:48.132Z,63.99
2023-11-17T12:58:16.300Z,64.21
2023-11-17T13:00:47.496Z,63.50
2023-11-17T13:03:16.943Z,64.35
2023-11-17T13:05:46.239Z,65.48
2023-11-17T13:08:14.738Z,65.92
2023-11-17T13:10:47.276Z,64.94
2023-11-17T13:13:16.926Z,65.72
2023-11-17T13:15:44.970Z,66.37
2023-11-17T13:18:13.436Z,66.13
2023-11-17T13:20:41.715Z,66.07
2023-11-17T13:23:10.779Z,66.16
2023-11-17T13:25:59.859Z,66.03
2023-11-17T13:28:29.796Z,66.72
2023-11-17T13:30:57.730Z,65.61
2023-11-17T13:33:42.637Z,66.31
2023-11-17T13:36:11.081Z,66.64
2023-11-17T13:39:17.154Z,65.34
2023-11-17T13:41:47.161Z,65.65
2023-11-17T13:44:28.991Z,66.35
2023-11-17T13:47:02.107Z,66.01
2023-11-17T13:49:35.774Z,66.50
2023-11-17T13:52:10.273Z,66.91
2023-11-17T13:54:38.946Z,66.61
2023-11-17T13:57:10.148Z,66.31
2023-11-17T13:59:41.634Z,66.15
2023-11-17T14:02:11.517Z,67.10
2023-11-17T14:04:41.852Z,67.07
2023-11-17T14:07:10.522Z,66.33
2023-11-17T14:09:40.070Z,66.19
2023-11-17T14:12:09.495Z,66.28
2023-11-17T14:14:45.126Z,66.72
2023-11-17T14:17:13.790Z,66.96
2023-11-17T14:19:44.013Z,66.15
2023-11-17T14:22:11.985Z,66.51
2023-11-17T14:24:41.778Z,66.56
2023-11-17T14:27:13.233Z,66.42
2023-11-17T14:29:44.202Z,66.43
2023-11-17T14:32:16.308Z,66.52
2023-11-17T14:34:47.575Z,66.97
2023-11-17T14:37:16.118Z,66.77
2023-11-17T14:39:44.136Z,66.35
2023-11-17T14:42:12.332Z,66.32
2023-11-17T14:44:40.351Z,66.61
2023-11-17T14:47:10.172Z,66.39
2023-11-17T14:49:39.405Z,66.81
2023-11-17T14:52:08.956Z,66.59
2023-11-17T14:54:37.921Z,66.56
2023-11-17T14:57:07.376Z,66.10
2023-11-17T14:59:36.061Z,66.52
2023-11-17T15:02:04.502Z,67.37
2023-11-17T15:04:35.761Z,67.26
2023-11-17T15:07:05.706Z,67.53
2023-11-17T15:09:35.069Z,67.53
2023-11-17T15:12:05.319Z,67.39
2023-11-17T15:14:33.384Z,67.36
2023-11-17T15:17:01.473Z,65.86
2023-11-17T15:19:29.961Z,65.46
2023-11-17T15:21:59.449Z,66.54
2023-11-17T15:24:28.591Z,65.95
2023-11-17T15:26:56.920Z,66.44
2023-11-17T15:29:28.969Z,66.74
2023-11-17T15:31:59.334Z,67.26
2023-11-17T15:34:29.783Z,67.28
2023-11-17T15:36:59.913Z,67.44
2023-11-17T15:39:31.818Z,67.84
2023-11-17T15:42:00.175Z,67.90
2023-11-17T15:44:29.522Z,67.82
2023-11-17T15:47:00.561Z,68.26
2023-11-17T15:49:30.073Z,67.47
2023-11-17T15:51:59.676Z,68.05
2023-11-17T15:54:27.621Z,68.04
2023-11-17T15:56:56.905Z,68.15
2023-11-17T15:59:25.040Z,67.90
2023-11-17T16:01:55.928Z,68.13
2023-11-17T16:04:25.302Z,67.74
2023-11-17T16:06:57.059Z,67.70
2023-11-17T16:09:29.722Z,68.21
2023-11-17T16:11:57.982Z,67.70
2023-11-17T16:14:25.900Z,68.16
2023-11-17T16:16:54.170Z,67.08
2023-11-17T16:19:22.414Z,67.64
2023-11-17T16:21:50.467Z,67.48
2023-11-17T16:24:18.428Z,68.05
2023-11-17T16:26:47.718Z,67.72
2023-11-17T16:29:15.772Z,67.04
2023-11-17T16:31:43.855Z,67.81
2023-11-17T16:34:12.411Z,67.10
2023-11-17T16:36:46.716Z,67.12
2023-11-17T16:39:19.896Z,67.11
2023-11-17T16:41:50.759Z,67.50
2023-11-17T16:44:18.882Z,66.69
2023-11-17T16:46:50.868Z,66.92
2023-11-17T16:49:20.855Z,67.12
2023-11-17T16:51:49.395Z,67.14
2023-11-17T16:54:18.516Z,67.21
2023-11-17T16:56:46.788Z,66.60
2023-11-17T16:59:17.011Z,66.66
2023-11-17T17:01:45.559Z,67.13
2023-11-17T17:04:13.781Z,66.99
2023-11-17T17:06:43.382Z,67.21
2023-11-17T17:09:15.110Z,67.71
2023-11-17T17:11:46.342Z,67.78
2023-11-17T17:14:20.715Z,67.86
2023-11-17T17:16:52.704Z,67.83
2023-11-17T17:19:23.171Z,67.69
2023-11-17T17:21:52.384Z,67.96
2023-11-17T17:24:20.694Z,68.52
2023-11-17T17:26:49.420Z,67.69
2023-11-17T17:29:18.772Z,67.71
2023-11-17T17:31:46.930Z,66.74
2023-11-17T17:34:17.063Z,66.61
2023-11-17T17:36:45.214Z,67.24
2023-11-17T17:39:17.661Z,67.26
2023-11-17T17:41:47.742Z,66.79
2023-11-17T17:44:20.709Z,67.47
2023-11-17T17:46:51.592Z,67.56
2023-11-17T17:49:19.770Z,67.37
2023-11-17T17:51:47.687Z,66.89
2023-11-17T17:54:15.775Z,66.95
2023-11-17T17:56:44.453Z,67.41
2023-11-17T17:59:14.264Z,67.74
2023-11-17T18:01:45.284Z,67.83
2023-11-17T18:04:14.598Z,67.27
2023-11-17T18:06:43.550Z,67.71
2023-11-17T18:09:13.611Z,67.80
2023-11-17T18:11:41.779Z,67.42
2023-11-17T18:14:11.239Z,68.05
2023-11-17T18:16:39.288Z,67.98
2023-11-17T18:19:08.626Z,67.99
2023-11-17T18:21:36.577Z,67.73
2023-11-17T18:24:06.411Z,67.59
2023-11-17T18:26:42.147Z,67.58
2023-11-17T18:29:18.121Z,67.74
2023-11-17T18:31:47.128Z,68.14
2023-11-17T18:34:17.185Z,68.07
2023-11-17T18:36:45.583Z,68.34
2023-11-17T18:39:13.792Z,68.53
2023-11-17T18:41:42.096Z,68.10
2023-11-17T18:44:10.155Z,68.05
2023-11-17T18:46:40.733Z,68.49
2023-11-17T18:49:10.863Z,68.55
2023-11-17T18:51:40.646Z,68.34
2023-11-17T18:54:10.934Z,68.68
2023-11-17T18:56:38.936Z,68.85
2023-11-17T18:59:07.352Z,68.48
2023-11-17T19:01:35.507Z,68.25
2023-11-17T19:04:04.268Z,68.31
2023-11-17T19:06:32.491Z,69.08
2023-11-17T19:09:04.836Z,68.73
2023-11-17T19:11:32.934Z,69.26
2023-11-17T19:14:01.026Z,68.62
2023-11-17T19:16:31.480Z,68.27
2023-11-17T19:18:59.507Z,68.78
2023-11-17T19:21:28.011Z,68.10
2023-11-17T19:23:56.327Z,68.42
2023-11-17T19:26:25.545Z,68.06
2023-11-17T19:28:53.477Z,68.18
2023-11-17T19:31:22.575Z,68.10
2023-11-17T19:33:50.532Z,68.36
2023-11-17T19:36:18.625Z,68.74
2023-11-17T19:38:47.726Z,67.99
2023-11-17T19:41:19.780Z,68.14
2023-11-17T19:43:50.404Z,68.69
2023-11-17T19:46:18.572Z,68.63
2023-11-17T19:48:47.566Z,68.58
2023-11-17T19:51:16.826Z,68.73
2023-11-17T19:53:46.182Z,68.84
2023-11-17T19:56:17.248Z,68.25
2023-11-17T19:58:45.537Z,68.72
2023-11-17T20:01:17.396Z,68.20
2023-11-17T20:03:45.455Z,68.40
2023-11-17T20:06:17.938Z,68.20
2023-11-17T20:08:46.279Z,68.22
2023-11-17T20:11:16.310Z,67.73
2023-11-17T20:13:44.285Z,68.27
2023-11-17T20:16:14.058Z,67.91
2023-11-17T20:18:42.188Z,68.05
2023-11-17T20:21:10.840Z,68.58
2023-11-17T20:23:38.756Z,68.19
2023-11-17T20:26:08.237Z,67.83
2023-11-17T20:28:37.031Z,68.15
2023-11-17T20:31:07.191Z,67.91
2023-11-17T20:33:36.689Z,68.57
2023-11-17T20:36:06.409Z,68.17
2023-11-17T20:38:38.004Z,68.92
2023-11-17T20:41:10.632Z,68.90
2023-11-17T20:43:38.732Z,68.82
2023-11-17T20:46:07.070Z,68.95
2023-11-17T20:48:36.349Z,68.70
2023-11-17T20:51:05.544Z,68.48
2023-11-17T20:53:34.581Z,68.86
2023-11-17T20:56:03.845Z,69.27
2023-11-17T20:58:31.829Z,68.86
2023-11-17T21:01:00.398Z,68.91
2023-11-17T21:03:28.556Z,69.12
2023-11-17T21:05:58.066Z,69.05
2023-11-17T21:08:25.970Z,69.94
2023-11-17T21:10:53.897Z,69.60
2023-11-17T21:13:21.920Z,70.64
2023-11-17T21:15:49.865Z,68.36
2023-11-17T21:18:17.804Z,68.41
2023-11-17T21:20:46.008Z,68.81
2023-11-17T21:23:16.873Z,68.82
2023-11-17T21:25:45.095Z,69.21
2023-11-17T21:28:13.950Z,69.01
2023-11-17T21:30:43.787Z,69.08
2023-11-17T21:33:12.138Z,68.88
2023-11-17T21:35:40.333Z,68.83
2023-11-17T21:38:08.902Z,68.79
2023-11-17T21:40:38.262Z,69.13
2023-11-17T21:43:06.220Z,69.35
2023-11-17T21:45:36.517Z,69.21
2023-11-17T21:48:05.437Z,69.63
2023-11-17T21:50:35.089Z,69.80
2023-11-17T21:53:03.240Z,69.09
2023-11-17T21:55:31.223Z,68.76
2023-11-17T21:58:00.637Z,68.62
2023-11-17T22:00:29.279Z,68.68
2023-11-17T22:02:57.403Z,69.06
2023-11-17T22:05:29.095Z,68.53
2023-11-17T22:07:57.304Z,68.51
2023-11-17T22:10:27.557Z,68.04
2023-11-17T22:12:59.666Z,68.05
2023-11-17T22:15:29.006Z,68.05
2023-11-17T22:17:56.966Z,68.17
2023-11-17T22:20:28.714Z,67.83
2023-11-17T22:22:56.729Z,67.86
2023-11-17T22:25:24.787Z,67.66
2023-11-17T22:27:56.733Z,68.47
2023-11-17T22:30:26.868Z,67.96
2023-11-17T22:32:59.806Z,68.02
2023-11-17T22:35:28.857Z,68.16
2023-11-17T22:37:57.031Z,68.27
2023-11-17T22:40:25.482Z,67.48
2023-11-17T22:42:54.390Z,67.67
2023-11-17T22:45:23.193Z,67.91
2023-11-17T22:47:52.830Z,67.60
2023-11-17T22:50:23.823Z,68.41
2023-11-17T22:52:53.671Z,67.71
2023-11-17T22:55:22.886Z,67.75
2023-11-17T22:57:51.428Z,67.68
2023-11-17T23:03:15.392Z,67.49
2023-11-17T23:05:44.386Z,67.86
2023-11-17T23:08:14.260Z,67.44
2023-11-17T23:10:43.063Z,67.68
2023-11-17T23:13:12.594Z,67.69
2023-11-17T23:15:40.746Z,67.76
2023-11-17T23:18:10.775Z,68.31
2023-11-17T23:20:40.234Z,68.21
2023-11-17T23:23:08.208Z,67.65
2023-11-17T23:25:38.119Z,68.00
2023-11-17T23:28:07.202Z,68.46
2023-11-17T23:30:36.077Z,68.00
2023-11-17T23:33:08.552Z,67.91
2023-11-17T23:35:37.270Z,68.11
2023-11-17T23:38:09.039Z,67.88
2023-11-17T23:40:37.165Z,68.04
2023-11-17T23:43:05.486Z,68.23
2023-11-17T23:45:33.457Z,67.63
2023-11-17T23:48:01.535Z,67.92
2023-11-17T23:50:30.172Z,68.00
2023-11-17T23:52:58.275Z,67.29
2023-11-17T23:55:27.779Z,67.35
2023-11-17T23:57:56.093Z,68.19
